createdAt,value
2024-01-05T00:03:00.746Z,4.00
2024-01-05T00:08:03.175Z,4.33
2024-01-05T00:13:04.820Z,5.30
2024-01-05T00:18:07.695Z,4.43
2024-01-05T00:23:09.480Z,3.97
2024-01-05T00:28:11.181Z,4.03
2024-01-05T00:33:13.035Z,4.23
2024-01-05T00:38:14.757Z,4.20
2024-01-05T00:43:16.430Z,3.90
2024-01-05T00:48:18.249Z,4.57
2024-01-05T00:53:20.094Z,3.90
2024-01-05T00:58:21.916Z,4.00
2024-01-05T01:03:23.657Z,3.93
2024-01-05T01:08:25.317Z,3.70
2024-01-05T01:13:26.934Z,3.60
2024-01-05T01:18:29.020Z,3.50
2024-01-05T01:23:30.873Z,3.60
2024-01-05T01:28:32.516Z,3.77
2024-01-05T01:33:34.356Z,3.90
2024-01-05T01:38:36.188Z,3.90
2024-01-05T01:43:37.890Z,3.93
2024-01-05T01:48:41.872Z,3.50
2024-01-05T01:53:45.090Z,4.23
2024-01-05T01:58:47.284Z,4.80
2024-01-05T02:03:49.455Z,5.00
2024-01-05T02:08:52.369Z,4.10
2024-01-05T02:13:54.179Z,3.97
2024-01-05T02:18:56.654Z,3.60
2024-01-05T02:23:58.558Z,3.93
2024-01-05T02:29:03.901Z,3.70
2024-01-05T02:34:05.589Z,3.70
2024-01-05T02:39:07.282Z,3.70
2024-01-05T02:44:08.980Z,4.43
2024-01-05T02:49:10.792Z,3.70
2024-01-05T02:54:12.542Z,4.57
2024-01-05T02:59:15.186Z,3.97
2024-01-05T03:04:16.980Z,3.77
2024-01-05T03:09:18.807Z,4.23
2024-01-05T03:14:20.535Z,4.17
2024-01-05T03:19:22.286Z,3.90
2024-01-05T03:24:24.211Z,3.70
2024-01-05T03:29:26.014Z,3.43
2024-01-05T03:34:29.528Z,4.70
2024-01-05T03:39:31.360Z,3.80
2024-01-05T03:44:33.056Z,3.57
2024-01-05T03:49:35.036Z,4.00
2024-01-05T03:54:36.865Z,4.37
2024-01-05T03:59:38.549Z,4.40
2024-01-05T04:04:41.096Z,4.03
2024-01-05T04:09:42.839Z,4.37
2024-01-05T04:14:46.370Z,3.60
2024-01-05T04:19:48.699Z,3.80
2024-01-05T04:24:50.556Z,3.30
2024-01-05T04:29:52.244Z,4.70
2024-01-05T04:34:53.926Z,3.80
2024-01-05T04:39:55.632Z,4.17
2024-01-05T04:44:57.401Z,3.93
2024-01-05T04:49:59.134Z,3.73
2024-01-05T04:55:00.802Z,3.93
2024-01-05T05:00:02.469Z,3.77
2024-01-05T05:05:04.380Z,3.30
2024-01-05T05:10:06.543Z,3.57
2024-01-05T05:15:09.413Z,3.47
2024-01-05T05:20:11.719Z,2.97
2024-01-05T05:25:13.435Z,3.23
2024-01-05T05:30:15.414Z,3.10
2024-01-05T05:35:17.254Z,2.93
2024-01-05T05:40:19.046Z,2.97
2024-01-05T05:45:20.746Z,3.93
2024-01-05T05:50:22.433Z,3.90
2024-01-05T05:55:24.056Z,2.90
2024-01-05T06:00:26.337Z,2.93
2024-01-05T06:05:28.101Z,3.40
2024-01-05T06:10:29.759Z,2.93
2024-01-05T06:15:31.543Z,2.87
2024-01-05T06:20:33.279Z,2.80
2024-01-05T06:25:34.908Z,2.90
2024-01-05T06:30:36.669Z,3.00
2024-01-05T06:35:38.362Z,3.40
2024-01-05T06:40:40.029Z,3.30
2024-01-05T06:45:41.729Z,3.50
2024-01-05T06:50:43.458Z,3.53
2024-01-05T06:55:45.193Z,2.70
2024-01-05T07:00:46.936Z,3.50
2024-01-05T07:05:49.836Z,3.30
2024-01-05T07:10:51.534Z,3.23
2024-01-05T07:15:53.202Z,3.30
2024-01-05T07:20:54.960Z,3.20
2024-01-05T07:26:01.323Z,3.20
2024-01-05T07:31:06.873Z,3.43
2024-01-05T07:36:09.297Z,3.40
2024-01-05T07:41:19.313Z,2.93
2024-01-05T07:46:21.113Z,3.73
2024-01-05T07:51:23.545Z,3.87
2024-01-05T07:56:25.268Z,3.93
2024-01-05T08:01:27.109Z,3.13
2024-01-05T08:06:28.879Z,3.20
2024-01-05T08:11:30.694Z,2.70
2024-01-05T08:16:32.394Z,3.23
2024-01-05T08:21:34.168Z,3.40
2024-01-05T08:26:35.973Z,3.13
2024-01-05T08:31:37.602Z,3.40
2024-01-05T08:36:39.321Z,3.00
2024-01-05T08:41:43.579Z,3.60
2024-01-05T08:46:45.424Z,3.50
2024-01-05T08:51:47.195Z,3.47
2024-01-05T08:56:48.878Z,3.23
2024-01-05T09:01:50.596Z,3.60
2024-01-05T09:06:52.630Z,3.10
2024-01-05T09:11:54.322Z,3.40
2024-01-05T09:16:56.868Z,3.90
2024-01-05T09:22:00.661Z,3.97
2024-01-05T09:27:03.670Z,3.47
2024-01-05T09:32:05.847Z,3.13
2024-01-05T09:37:07.487Z,3.10
2024-01-05T09:42:10.089Z,3.37
2024-01-05T09:47:12.329Z,3.37
2024-01-05T09:52:15.079Z,2.83
2024-01-05T09:57:19.103Z,3.10
2024-01-05T10:02:52.193Z,3.73
2024-01-05T10:07:53.963Z,2.93
2024-01-05T10:13:06.220Z,3.27
2024-01-05T10:18:23.160Z,2.90
2024-01-05T10:23:27.163Z,2.90
2024-01-05T10:28:38.975Z,3.40
2024-01-05T10:33:54.789Z,3.13
2024-01-05T10:38:58.155Z,3.23
2024-01-05T10:43:59.998Z,3.67
2024-01-05T10:49:01.843Z,2.97
2024-01-05T10:54:03.956Z,2.30
2024-01-05T10:59:05.597Z,2.83
2024-01-05T11:06:13.672Z,3.03
2024-01-05T11:11:34.975Z,3.30
2024-01-05T11:16:45.544Z,3.20
2024-01-05T11:21:55.783Z,2.97
2024-01-05T11:26:57.478Z,2.70
2024-01-05T11:31:59.127Z,2.60
2024-01-05T11:37:02.067Z,3.27
2024-01-05T11:42:04.389Z,2.70
2024-01-05T11:47:06.178Z,2.87
2024-01-05T11:52:09.025Z,2.90
2024-01-05T11:57:10.650Z,3.20
2024-01-05T12:02:18.634Z,3.07
2024-01-05T12:07:21.964Z,2.90
2024-01-05T12:12:24.599Z,2.60
2024-01-05T12:17:26.264Z,2.53
2024-01-05T12:22:27.957Z,2.80
2024-01-05T12:27:40.117Z,3.60
2024-01-05T12:32:42.505Z,2.70
2024-01-05T12:37:52.316Z,2.73
2024-01-05T12:42:54.728Z,2.90
2024-01-05T12:47:56.379Z,2.63
2024-01-05T12:52:57.978Z,2.90
2024-01-05T12:58:06.556Z,2.40
2024-01-05T13:03:17.522Z,2.80
2024-01-05T13:08:19.179Z,2.97
2024-01-05T13:13:20.870Z,2.97
2024-01-05T13:18:22.523Z,2.60
2024-01-05T13:23:27.831Z,2.80
2024-01-05T13:28:30.225Z,2.50
2024-01-05T13:33:33.020Z,3.17
2024-01-05T13:38:34.778Z,2.83
2024-01-05T13:43:36.649Z,2.87
2024-01-05T13:48:38.577Z,2.63
2024-01-05T13:53:40.246Z,2.43
2024-01-05T13:58:41.895Z,2.80
2024-01-05T14:03:43.996Z,3.70
2024-01-05T14:08:45.596Z,3.10
2024-01-05T14:13:47.146Z,2.80
2024-01-05T14:18:51.395Z,2.50
2024-01-05T14:23:53.496Z,2.80
2024-01-05T14:28:55.797Z,2.60
2024-01-05T14:33:58.839Z,2.50
2024-01-05T14:39:00.926Z,2.90
2024-01-05T14:44:02.598Z,2.70
2024-01-05T14:49:06.354Z,2.13
2024-01-05T14:54:08.188Z,2.20
2024-01-05T14:59:09.787Z,2.90
2024-01-05T15:04:11.499Z,3.20
2024-01-05T15:09:13.511Z,3.37
2024-01-05T15:14:15.200Z,3.60
2024-01-05T15:19:17.806Z,3.47
2024-01-05T15:24:19.552Z,3.47
2024-01-05T15:29:22.173Z,4.20
2024-01-05T15:34:23.868Z,4.27
2024-01-05T15:39:25.558Z,3.33
2024-01-05T15:44:27.290Z,4.27
2024-01-05T15:49:29.007Z,3.67
2024-01-05T15:54:30.888Z,2.97
2024-01-05T15:59:34.068Z,2.60
2024-01-05T16:04:36.298Z,3.00
2024-01-05T16:09:38.112Z,2.50
2024-01-05T16:14:48.244Z,3.23
2024-01-05T16:19:50.056Z,2.97
2024-01-05T16:24:51.686Z,3.33
2024-01-05T16:29:53.341Z,2.93
2024-01-05T16:34:55.076Z,3.17
2024-01-05T16:39:56.755Z,3.17
2024-01-05T16:44:58.410Z,4.47
2024-01-05T16:50:00.302Z,5.43
2024-01-05T16:55:02.402Z,6.67
2024-01-05T17:00:06.061Z,5.30
2024-01-05T17:05:07.969Z,6.07
2024-01-05T17:10:09.678Z,3.93
2024-01-05T17:15:11.483Z,4.40
2024-01-05T17:20:21.814Z,5.07
2024-01-05T17:25:27.090Z,4.50
2024-01-05T17:30:28.771Z,6.27
2024-01-05T17:35:30.430Z,5.57
2024-01-05T17:40:32.014Z,6.43
2024-01-05T17:45:33.603Z,6.10
2024-01-05T17:50:35.286Z,4.87
2024-01-05T17:55:36.923Z,4.20
2024-01-05T18:00:38.718Z,4.60
2024-01-05T18:05:40.359Z,4.37
2024-01-05T18:10:42.236Z,4.67
2024-01-05T18:15:43.893Z,4.47
2024-01-05T18:20:45.528Z,4.87
2024-01-05T18:25:47.340Z,5.07
2024-01-05T18:30:50.031Z,10.00
2024-01-05T18:35:51.842Z,5.23
2024-01-05T18:40:53.522Z,4.70
2024-01-05T18:45:55.235Z,5.53
2024-01-05T18:50:56.912Z,5.30
2024-01-05T18:55:58.827Z,4.07
2024-01-05T19:01:00.573Z,4.80
2024-01-05T19:06:02.380Z,4.80
2024-01-05T19:11:04.976Z,4.73
2024-01-05T19:16:09.834Z,5.17
2024-01-05T19:21:11.532Z,5.20
2024-01-05T19:26:22.748Z,6.00
2024-01-05T19:31:24.517Z,5.40
2024-01-05T19:36:26.170Z,5.17
2024-01-05T19:41:27.740Z,5.10
2024-01-05T19:46:30.199Z,5.17
2024-01-05T19:51:32.111Z,4.27
2024-01-05T19:56:33.733Z,4.33
2024-01-05T20:01:37.298Z,3.57
2024-01-05T20:06:39.735Z,4.50
2024-01-05T20:11:41.970Z,5.80
2024-01-05T20:16:44.364Z,11.83
2024-01-05T20:21:47.142Z,8.80
2024-01-05T20:26:51.940Z,5.90
2024-01-05T20:31:55.301Z,5.67
2024-01-05T20:36:57.137Z,7.87
2024-01-05T20:41:58.756Z,8.43
2024-01-05T20:47:00.370Z,9.00
2024-01-05T20:52:01.967Z,5.33
2024-01-05T20:57:03.837Z,4.23
2024-01-05T21:02:05.761Z,4.70
2024-01-05T21:07:07.768Z,4.23
2024-01-05T21:12:10.433Z,3.73
2024-01-05T21:17:12.149Z,3.73
2024-01-05T21:22:13.778Z,4.10
2024-01-05T21:27:16.018Z,4.80
2024-01-05T21:32:20.679Z,6.63
2024-01-05T21:37:23.026Z,6.57
2024-01-05T21:42:24.730Z,5.27
2024-01-05T21:47:28.083Z,7.47
2024-01-05T21:52:29.765Z,8.07
2024-01-05T21:57:32.863Z,5.90
2024-01-05T22:02:35.284Z,4.70
2024-01-05T22:07:38.190Z,4.87
2024-01-05T22:12:39.883Z,4.33
2024-01-05T22:17:41.703Z,4.07
2024-01-05T22:22:43.409Z,3.57
2024-01-05T22:27:46.285Z,3.63
2024-01-05T22:32:47.962Z,4.10
2024-01-05T22:37:49.664Z,3.50
2024-01-05T22:42:51.439Z,4.00
2024-01-05T22:47:53.408Z,3.40
2024-01-05T22:52:55.124Z,3.67
2024-01-05T22:57:56.728Z,3.53
2024-01-05T23:02:58.426Z,3.60
2024-01-05T23:08:00.169Z,3.73
2024-01-05T23:13:02.953Z,3.90
2024-01-05T23:18:05.950Z,3.67
2024-01-05T23:23:07.951Z,3.83
2024-01-05T23:28:09.644Z,4.57
2024-01-05T23:33:11.834Z,3.80
2024-01-05T23:38:13.706Z,3.57
2024-01-05T23:43:15.385Z,4.43
2024-01-05T23:48:17.186Z,4.13
2024-01-05T23:53:19.152Z,4.27
2024-01-05T23:58:20.826Z,4.40
